Observation data for Amherst on 12/07/2018      Previous  Date       Current Mesonet Observations  Soil Data  Daily Summary Page  Observations in Plain Language
KAMH 070600Z 05006KT M01/M04 A3029 RMK A01 T10051036  RH  080%=      5-min Rain = 0
KAMH 070605Z 05006KT M01/M04 A3028 RMK A01 T10051036  RH  080%=      5-min Rain = 0
KAMH 070610Z 05006KT M01/M04 A3028 RMK A01 T10051037  RH  080%=      5-min Rain = 0
KAMH 070615Z 04007KT M01/M04 A3028 RMK A01 T10051037  RH  079%=      5-min Rain = 0
KAMH 070620Z 04006KT M01/M04 A3028 RMK A01 T10051038  RH  079%=      5-min Rain = 0
KAMH 070625Z 03005KT M01/M04 A3028 RMK A01 T10051039  RH  079%=      5-min Rain = 0
KAMH 070630Z 03006KT M01/M04 A3028 RMK A01 T10061039  RH  079%=      5-min Rain = 0
KAMH 070635Z 04004KT M01/M04 A3028 RMK A01 T10061040  RH  078%=      5-min Rain = 0
KAMH 070640Z 04004KT M01/M04 A3029 RMK A01 T10071040  RH  078%=      5-min Rain = 0
KAMH 070645Z 06003KT M01/M04 A3029 RMK A01 T10071040  RH  079%=      5-min Rain = 0
KAMH 070650Z 05002KT M01/M04 A3029 RMK A01 T10071040  RH  079%=      5-min Rain = 0
KAMH 070655Z 06002KT M01/M04 A3029 RMK A01 T10081039  RH  080%=      5-min Rain = 0
KAMH 070700Z 06002KT M01/M04 A303 RMK A01 T10071038  RH  080%=      5-min Rain = 0
KAMH 070705Z 07001KT M01/M04 A303 RMK A01 T10071039  RH  080%=      5-min Rain = 0
KAMH 070710Z 09002KT M01/M04 A303 RMK A01 T10071039  RH  080%=      5-min Rain = 0
KAMH 070715Z 07003KT M01/M04 A303 RMK A01 T10081039  RH  079%=      5-min Rain = 0
KAMH 070720Z 08003KT M01/M04 A303 RMK A01 T10081040  RH  079%=      5-min Rain = 0
KAMH 070725Z 11002KT M01/M04 A303 RMK A01 T10081040  RH  079%=      5-min Rain = 0
KAMH 070730Z 13002KT M01/M04 A303 RMK A01 T10081039  RH  080%=      5-min Rain = 0
KAMH 070735Z 12002KT M01/M04 A303 RMK A01 T10071039  RH  079%=      5-min Rain = 0
KAMH 070740Z 12001KT M01/M04 A3031 RMK A01 T10071040  RH  079%=      5-min Rain = 0
KAMH 070745Z 10001KT M01/M04 A3031 RMK A01 T10071040  RH  079%=      5-min Rain = 0
KAMH 070750Z 08002KT M01/M04 A303 RMK A01 T10061040  RH  078%=      5-min Rain = 0
KAMH 070755Z 07001KT M01/M04 A303 RMK A01 T10061040  RH  078%=      5-min Rain = 0
KAMH 070800Z 07000KT M01/M04 A303 RMK A01 T10071040  RH  078%=      5-min Rain = 0
KAMH 070805Z 08001KT M01/M04 A303 RMK A01 T10061040  RH  078%=      5-min Rain = 0
KAMH 070810Z 08001KT M01/M04 A303 RMK A01 T10061040  RH  078%=      5-min Rain = 0
KAMH 070815Z 20001KT M01/M04 A3031 RMK A01 T10061040  RH  078%=      5-min Rain = 0
KAMH 070820Z 20003KT M01/M04 A3032 RMK A01 T10061040  RH  078%=      5-min Rain = 0
KAMH 070825Z 21003KT M01/M04 A3032 RMK A01 T10051041  RH  077%=      5-min Rain = 0
KAMH 070830Z 20002KT M01/M04 A3032 RMK A01 T10051042  RH  077%=      5-min Rain = 0
KAMH 070835Z 20003KT M01/M04 A3032 RMK A01 T10051040  RH  077%=      5-min Rain = 0
KAMH 070840Z 18003KT M00/M04 A3031 RMK A01 T10041040  RH  077%=      5-min Rain = 0
KAMH 070845Z 11002KT M01/M04 A303 RMK A01 T10051040  RH  077%=      5-min Rain = 0
KAMH 070850Z 09003KT M01/M04 A3029 RMK A01 T10051038  RH  079%=      5-min Rain = 0
KAMH 070855Z 07002KT M01/M04 A3029 RMK A01 T10051038  RH  079%=      5-min Rain = 0
KAMH 070900Z 14001KT M01/M04 A3029 RMK A01 T10051039  RH  078%=      5-min Rain = 0
KAMH 070905Z 10002KT M01/M04 A3029 RMK A01 T10051039  RH  078%=      5-min Rain = 0
KAMH 070910Z 07004KT M01/M04 A3027 RMK A01 T10051037  RH  079%=      5-min Rain = 0
KAMH 070915Z 07007KT M01/M04 A3025 RMK A01 T10061036  RH  081%=      5-min Rain = 0
KAMH 070920Z 06006KT M01/M04 A3025 RMK A01 T10071037  RH  081%=      5-min Rain = 0
KAMH 070925Z 05004KT M01/M04 A3026 RMK A01 T10081036  RH  082%=      5-min Rain = 0
KAMH 070930Z 07003KT M01/M04 A3027 RMK A01 T10081037  RH  081%=      5-min Rain = 0
KAMH 070935Z 08005KT M01/M04 A3026 RMK A01 T10081038  RH  080%=      5-min Rain = 0
KAMH 070940Z 07005KT M01/M04 A3026 RMK A01 T10091039  RH  081%=      5-min Rain = 0
KAMH 070945Z 06006KT M01/M04 A3025 RMK A01 T10101038  RH  082%=      5-min Rain = 0
KAMH 070950Z 06006KT M01/M04 A3024 RMK A01 T10101037  RH  082%=      5-min Rain = 0
KAMH 070955Z 06006KT M01/M04 A3024 RMK A01 T10111039  RH  082%=      5-min Rain = 0
KAMH 071000Z 04004KT M01/M04 A3025 RMK A01 T10111039  RH  081%=      5-min Rain = 0
KAMH 071005Z 04004KT M01/M04 A3025 RMK A01 T10111040  RH  081%=      5-min Rain = 0
KAMH 071010Z 04004KT M01/M04 A3025 RMK A01 T10111040  RH  081%=      5-min Rain = 0
KAMH 071015Z 02004KT M01/M04 A3025 RMK A01 T10111040  RH  081%=      5-min Rain = 0
KAMH 071020Z 05004KT M01/M04 A3025 RMK A01 T10111041  RH  080%=      5-min Rain = 0
KAMH 071025Z 06004KT M01/M04 A3025 RMK A01 T10121042  RH  081%=      5-min Rain = 0
KAMH 071030Z 05005KT M01/M04 A3024 RMK A01 T10141042  RH  082%=      5-min Rain = 0
KAMH 071035Z 04003KT M02/M04 A3025 RMK A01 T10161041  RH  083%=      5-min Rain = 0
KAMH 071040Z 03003KT M02/M04 A3025 RMK A01 T10151041  RH  083%=      5-min Rain = 0
KAMH 071045Z 02002KT M01/M04 A3026 RMK A01 T10131041  RH  082%=      5-min Rain = 0
KAMH 071050Z 03002KT M01/M04 A3026 RMK A01 T10121040  RH  082%=      5-min Rain = 0
KAMH 071055Z 04001KT M01/M04 A3026 RMK A01 T10111040  RH  081%=      5-min Rain = 0
KAMH 071100Z 05001KT M01/M04 A3026 RMK A01 T10101039  RH  081%=      5-min Rain = 0
KAMH 071105Z 06000KT M01/M04 A3026 RMK A01 T10091039  RH  081%=      5-min Rain = 0
KAMH 071110Z 07001KT M01/M04 A3026 RMK A01 T10091039  RH  081%=      5-min Rain = 0
KAMH 071115Z 07001KT M01/M04 A3026 RMK A01 T10091037  RH  082%=      5-min Rain = 0
KAMH 071120Z 08001KT M01/M04 A3026 RMK A01 T10091038  RH  081%=      5-min Rain = 0
KAMH 071125Z 07001KT M01/M04 A3025 RMK A01 T10101037  RH  082%=      5-min Rain = 0
KAMH 071130Z 05001KT M01/M04 A3026 RMK A01 T10101036  RH  083%=      5-min Rain = 0
KAMH 071135Z 03000KT M01/M04 A3026 RMK A01 T10111036  RH  083%=      5-min Rain = 0
KAMH 071140Z 29000KT M01/M04 A3026 RMK A01 T10101035  RH  084%=      5-min Rain = 0
KAMH 071145Z 21000KT M01/M04 A3027 RMK A01 T10101036  RH  083%=      5-min Rain = 0
KAMH 071150Z 00000KT M01/M04 A3027 RMK A01 T10101035  RH  083%=      5-min Rain = 0
KAMH 071155Z 21000KT M01/M04 A3027 RMK A01 T10101036  RH  083%=      5-min Rain = 0
KAMH 071200Z 13001KT M01/M04 A3027 RMK A01 T10101035  RH  084%=      5-min Rain = 0
KAMH 071205Z 09002KT M01/M03 A3026 RMK A01 T10101034  RH  084%=      5-min Rain = 0
KAMH 071210Z 11003KT M01/M03 A3026 RMK A01 T10101033  RH  085%=      5-min Rain = 0
KAMH 071215Z 11003KT M01/M03 A3026 RMK A01 T10101032  RH  086%=      5-min Rain = 0
KAMH 071220Z 10003KT M01/M04 A3025 RMK A01 T10081035  RH  083%=      5-min Rain = 0
KAMH 071225Z 15003KT M01/M04 A3025 RMK A01 T10081036  RH  081%=      5-min Rain = 0
KAMH 071230Z 11004KT M01/M04 A3025 RMK A01 T10071038  RH  080%=      5-min Rain = 0
KAMH 071235Z 08004KT M01/M04 A3025 RMK A01 T10071040  RH  078%=      5-min Rain = 0
KAMH 071240Z 06003KT M01/M04 A3026 RMK A01 T10061040  RH  079%=      5-min Rain = 0
KAMH 071245Z 06002KT M01/M04 A3025 RMK A01 T10061039  RH  079%=      5-min Rain = 0
KAMH 071250Z 05002KT M01/M04 A3026 RMK A01 T10061041  RH  078%=      5-min Rain = 0
KAMH 071255Z 03003KT M01/M04 A3026 RMK A01 T10061041  RH  078%=      5-min Rain = 0
KAMH 071300Z 01002KT M01/M04 A3026 RMK A01 T10071043  RH  077%=      5-min Rain = 0
KAMH 071305Z 00003KT M01/M04 A3027 RMK A01 T10061043  RH  076%=      5-min Rain = 0
KAMH 071310Z 02001KT M01/M04 A3027 RMK A01 T10051041  RH  077%=      5-min Rain = 0
KAMH 071315Z 14002KT M01/M04 A3027 RMK A01 T10061043  RH  076%=      5-min Rain = 0
KAMH 071320Z 09002KT M01/M04 A3026 RMK A01 T10061042  RH  077%=      5-min Rain = 0
KAMH 071325Z 11002KT M01/M04 A3026 RMK A01 T10071040  RH  078%=      5-min Rain = 0
KAMH 071330Z 15002KT M01/M04 A3027 RMK A01 T10071041  RH  078%=      5-min Rain = 0
KAMH 071335Z 15002KT M01/M04 A3028 RMK A01 T10071041  RH  078%=      5-min Rain = 0
KAMH 071340Z 17004KT M01/M04 A3029 RMK A01 T10061039  RH  079%=      5-min Rain = 0
KAMH 071345Z 16003KT M01/M04 A3029 RMK A01 T10051041  RH  077%=      5-min Rain = 0
KAMH 071350Z 16004KT M00/M04 A303 RMK A01 T10041040  RH  077%=      5-min Rain = 0
KAMH 071355Z 17005KT M00/M04 A303 RMK A01 T10041041  RH  077%=      5-min Rain = 0
KAMH 071400Z 17003KT M00/M04 A303 RMK A01 T10041041  RH  076%=      5-min Rain = 0
KAMH 071405Z 17004KT M00/M04 A303 RMK A01 T10031041  RH  076%=      5-min Rain = 0
KAMH 071410Z 17004KT M00/M04 A3031 RMK A01 T10031042  RH  076%=      5-min Rain = 0
KAMH 071415Z 17003KT M00/M04 A3031 RMK A01 T10031041  RH  076%=      5-min Rain = 0
KAMH 071420Z 20003KT M00/M04 A3031 RMK A01 T10021040  RH  076%=      5-min Rain = 0
KAMH 071425Z 20003KT M00/M04 A3032 RMK A01 T10021041  RH  076%=      5-min Rain = 0
KAMH 071430Z 21002KT M00/M04 A3032 RMK A01 T10021041  RH  075%=      5-min Rain = 0
KAMH 071435Z 19002KT M00/M04 A3032 RMK A01 T10021042  RH  075%=      5-min Rain = 0
KAMH 071440Z 23002KT M00/M04 A3032 RMK A01 T10021040  RH  076%=      5-min Rain = 0
KAMH 071445Z 21001KT M00/M04 A3032 RMK A01 T10021041  RH  075%=      5-min Rain = 0
KAMH 071450Z 24002KT M00/M04 A3032 RMK A01 T10021040  RH  076%=      5-min Rain = 0
KAMH 071455Z 23003KT M00/M04 A3032 RMK A01 T10021040  RH  076%=      5-min Rain = 0
KAMH 071500Z 26002KT M00/M04 A3032 RMK A01 T10021039  RH  076%=      5-min Rain = 0
KAMH 071505Z 27001KT M00/M04 A3031 RMK A01 T10021036  RH  078%=      5-min Rain = 0
KAMH 071510Z 25000KT M00/M03 A3031 RMK A01 T10031033  RH  081%=      5-min Rain = 0.01
KAMH 071515Z 34001KT M00/M03 A3031 RMK A01 T10041032  RH  081%=      5-min Rain = 0
KAMH 071520Z 33001KT M01/M03 A3031 RMK A01 T10051032  RH  082%=      5-min Rain = 0
KAMH 071525Z 05001KT M01/M03 A303 RMK A01 T10051029  RH  084%=      5-min Rain = 0.01
KAMH 071530Z 06000KT M01/M03 A303 RMK A01 T10051027  RH  085%=      5-min Rain = 0.01
KAMH 071535Z 05003KT M01/M03 A303 RMK A01 T10051028  RH  085%=      5-min Rain = 0.01
KAMH 071540Z 05006KT M01/M02 A3029 RMK A01 T10051024  RH  088%=      5-min Rain = 0
KAMH 071545Z 04008KT M01/M02 A3028 RMK A01 T10061023  RH  089%=      5-min Rain = 0.01
KAMH 071550Z 04007KT M01/M02 A3027 RMK A01 T10061022  RH  090%=      5-min Rain = 0.01
KAMH 071555Z 04007KT M01/M02 A3028 RMK A01 T10061022  RH  089%=      5-min Rain = 0
KAMH 071600Z 04006KT M00/M02 A3029 RMK A01 T10041020  RH  090%=      5-min Rain = 0.01
KAMH 071605Z 05007KT M00/M02 A3029 RMK A01 T10041022  RH  088%=      5-min Rain = 0
KAMH 071610Z 07006KT M00/M02 A3029 RMK A01 T10041022  RH  089%=      5-min Rain = 0
KAMH 071615Z 08005KT M00/M02 A3029 RMK A01 T10031021  RH  089%=      5-min Rain = 0
KAMH 071620Z 08004KT M00/M02 A303 RMK A01 T10031023  RH  087%=      5-min Rain = 0
KAMH 071625Z 09005KT M00/M02 A303 RMK A01 T10021021  RH  088%=      5-min Rain = 0
KAMH 071630Z 08004KT M00/M02 A303 RMK A01 T10011021  RH  087%=      5-min Rain = 0
KAMH 071635Z 06003KT M00/M02 A303 RMK A01 T10021023  RH  086%=      5-min Rain = 0
KAMH 071640Z 03003KT M00/M02 A303 RMK A01 T10011023  RH  086%=      5-min Rain = 0
KAMH 071645Z 03002KT 00/M02 A303 RMK A01 T00011019  RH  087%=      5-min Rain = 0
KAMH 071650Z 02002KT 00/M02 A303 RMK A01 T00011021  RH  085%=      5-min Rain = 0
KAMH 071655Z 05003KT 00/M02 A303 RMK A01 T00021020  RH  086%=      5-min Rain = 0
KAMH 071700Z 04002KT 00/M02 A303 RMK A01 T00031017  RH  087%=      5-min Rain = 0
KAMH 071705Z 05003KT 00/M02 A303 RMK A01 T00031017  RH  087%=      5-min Rain = 0
KAMH 071710Z 04003KT 00/M02 A303 RMK A01 T00031020  RH  086%=      5-min Rain = 0
KAMH 071715Z 02003KT 00/M02 A303 RMK A01 T00041017  RH  087%=      5-min Rain = 0
KAMH 071720Z 05001KT 00/M02 A303 RMK A01 T00031019  RH  086%=      5-min Rain = 0
KAMH 071725Z 04003KT 00/M02 A303 RMK A01 T00031018  RH  086%=      5-min Rain = 0
KAMH 071730Z 06002KT 00/M02 A3029 RMK A01 T00031018  RH  086%=      5-min Rain = 0
KAMH 071735Z 05003KT 01/M02 A3029 RMK A01 T00051015  RH  087%=      5-min Rain = 0
KAMH 071740Z 07004KT 01/M01 A3028 RMK A01 T00061014  RH  088%=      5-min Rain = 0
KAMH 071745Z 06004KT 01/M02 A3028 RMK A01 T00061016  RH  087%=      5-min Rain = 0
KAMH 071750Z 06003KT 01/M02 A3028 RMK A01 T00051016  RH  086%=      5-min Rain = 0
KAMH 071755Z 08004KT 01/M01 A3027 RMK A01 T00061014  RH  087%=      5-min Rain = 0
KAMH 071800Z 07004KT 01/M01 A3027 RMK A01 T00061014  RH  087%=      5-min Rain = 0
KAMH 071805Z 06004KT 01/M01 A3027 RMK A01 T00061014  RH  087%=      5-min Rain = 0
KAMH 071810Z 06003KT 01/M01 A3027 RMK A01 T00071014  RH  087%=      5-min Rain = 0
KAMH 071815Z 04003KT 01/M02 A3027 RMK A01 T00071015  RH  086%=      5-min Rain = 0
KAMH 071820Z 03003KT 01/M01 A3027 RMK A01 T00081014  RH  086%=      5-min Rain = 0
KAMH 071825Z 02002KT 01/M01 A3027 RMK A01 T00081014  RH  086%=      5-min Rain = 0
KAMH 071830Z 07004KT 01/M01 A3026 RMK A01 T00091014  RH  085%=      5-min Rain = 0
KAMH 071835Z 07004KT 01/M01 A3025 RMK A01 T00101012  RH  086%=      5-min Rain = 0
KAMH 071840Z 08005KT 01/M01 A3025 RMK A01 T00121010  RH  086%=      5-min Rain = 0
KAMH 071845Z 05004KT 01/M01 A3025 RMK A01 T00121013  RH  085%=      5-min Rain = 0
KAMH 071850Z 07004KT 01/M01 A3025 RMK A01 T00111014  RH  084%=      5-min Rain = 0
KAMH 071855Z 05004KT 01/M01 A3025 RMK A01 T00111012  RH  085%=      5-min Rain = 0
KAMH 071900Z 05003KT 01/M01 A3025 RMK A01 T00111014  RH  084%=      5-min Rain = 0
KAMH 071905Z 05004KT 01/M01 A3025 RMK A01 T00121012  RH  085%=      5-min Rain = 0
KAMH 071910Z 08003KT 01/M01 A3025 RMK A01 T00121011  RH  085%=      5-min Rain = 0
KAMH 071915Z 06003KT 01/M01 A3026 RMK A01 T00121011  RH  085%=      5-min Rain = 0
KAMH 071920Z 07003KT 01/M01 A3025 RMK A01 T00111013  RH  085%=      5-min Rain = 0
KAMH 071925Z 08004KT 01/M01 A3025 RMK A01 T00121011  RH  086%=      5-min Rain = 0
KAMH 071930Z 07004KT 01/M01 A3025 RMK A01 T00121011  RH  085%=      5-min Rain = 0
KAMH 071935Z 06004KT 01/M01 A3025 RMK A01 T00131011  RH  085%=      5-min Rain = 0
KAMH 071940Z 07006KT 01/M01 A3024 RMK A01 T00131010  RH  086%=      5-min Rain = 0
KAMH 071945Z 07005KT 01/M01 A3024 RMK A01 T00141008  RH  086%=      5-min Rain = 0
KAMH 071950Z 07005KT 01/M01 A3024 RMK A01 T00141009  RH  085%=      5-min Rain = 0
KAMH 071955Z 08005KT 01/M01 A3024 RMK A01 T00141010  RH  085%=      5-min Rain = 0
KAMH 072000Z 08006KT 01/M01 A3024 RMK A01 T00131009  RH  086%=      5-min Rain = 0
KAMH 072005Z 07004KT 01/M01 A3025 RMK A01 T00131010  RH  086%=      5-min Rain = 0
KAMH 072010Z 09005KT 01/M01 A3024 RMK A01 T00131010  RH  086%=      5-min Rain = 0
KAMH 072015Z 08004KT 01/M01 A3024 RMK A01 T00141008  RH  086%=      5-min Rain = 0
KAMH 072020Z 06005KT 01/M01 A3024 RMK A01 T00141009  RH  086%=      5-min Rain = 0
KAMH 072025Z 06004KT 01/M01 A3024 RMK A01 T00141009  RH  085%=      5-min Rain = 0
KAMH 072030Z 06006KT 01/M01 A3024 RMK A01 T00141010  RH  085%=      5-min Rain = 0
KAMH 072035Z 06006KT 01/M01 A3023 RMK A01 T00131010  RH  086%=      5-min Rain = 0
KAMH 072040Z 06006KT 01/M01 A3023 RMK A01 T00131010  RH  086%=      5-min Rain = 0
KAMH 072045Z 06006KT 01/M01 A3023 RMK A01 T00141009  RH  086%=      5-min Rain = 0
KAMH 072050Z 05006KT 01/M01 A3023 RMK A01 T00131009  RH  086%=      5-min Rain = 0
KAMH 072055Z 05006KT 01/M01 A3023 RMK A01 T00121009  RH  087%=      5-min Rain = 0
KAMH 072100Z 06006KT 01/M01 A3023 RMK A01 T00121009  RH  087%=      5-min Rain = 0
KAMH 072105Z 04006KT 01/M01 A3023 RMK A01 T00121008  RH  087%=      5-min Rain = 0
KAMH 072110Z 05007KT 01/M01 A3023 RMK A01 T00111009  RH  087%=      5-min Rain = 0
KAMH 072115Z 05006KT 01/M01 A3023 RMK A01 T00111010  RH  087%=      5-min Rain = 0
KAMH 072120Z 04006KT 01/M01 A3023 RMK A01 T00111010  RH  087%=      5-min Rain = 0
KAMH 072125Z 03006KT 01/M01 A3023 RMK A01 T00111010  RH  087%=      5-min Rain = 0
KAMH 072130Z 04007KT 01/M01 A3023 RMK A01 T00101010  RH  087%=      5-min Rain = 0
KAMH 072135Z 04007KT 01/M01 A3022 RMK A01 T00101010  RH  087%=      5-min Rain = 0
KAMH 072140Z 04009KT 01/M01 A3022 RMK A01 T00091012  RH  086%=      5-min Rain = 0
KAMH 072145Z 05008KT 01/M01 A3022 RMK A01 T00091013  RH  086%=      5-min Rain = 0
KAMH 072150Z 05008KT 01/M01 A3022 RMK A01 T00091013  RH  086%=      5-min Rain = 0
KAMH 072155Z 04009KT 01/M01 A3022 RMK A01 T00091013  RH  086%=      5-min Rain = 0
KAMH 072200Z 05008KT 01/M01 A3022 RMK A01 T00091013  RH  086%=      5-min Rain = 0
KAMH 072205Z 04008KT 01/M01 A3022 RMK A01 T00101013  RH  086%=      5-min Rain = 0
KAMH 072210Z 05009KT 01/M01 A3022 RMK A01 T00091013  RH  086%=      5-min Rain = 0
KAMH 072215Z 04009KT 01/M01 A3022 RMK A01 T00091013  RH  086%=      5-min Rain = 0
KAMH 072220Z 05009KT 01/M02 A3022 RMK A01 T00081015  RH  085%=      5-min Rain = 0
KAMH 072225Z 05009KT 01/M02 A3022 RMK A01 T00081016  RH  085%=      5-min Rain = 0
KAMH 072230Z 05008KT 01/M02 A3023 RMK A01 T00081015  RH  085%=      5-min Rain = 0
KAMH 072235Z 04010KT 01/M02 A3022 RMK A01 T00081015  RH  085%=      5-min Rain = 0
KAMH 072240Z 04009KT 01/M02 A3023 RMK A01 T00081016  RH  085%=      5-min Rain = 0
KAMH 072245Z 05008KT 01/M02 A3023 RMK A01 T00081015  RH  086%=      5-min Rain = 0
KAMH 072250Z 05008KT 01/M02 A3023 RMK A01 T00071015  RH  086%=      5-min Rain = 0
KAMH 072255Z 05007KT 01/M02 A3024 RMK A01 T00071015  RH  086%=      5-min Rain = 0
KAMH 072300Z 04006KT 01/M02 A3024 RMK A01 T00071015  RH  086%=      5-min Rain = 0
KAMH 072305Z 05006KT 01/M02 A3024 RMK A01 T00071016  RH  086%=      5-min Rain = 0
KAMH 072310Z 05006KT 01/M02 A3024 RMK A01 T00071015  RH  086%=      5-min Rain = 0
KAMH 072315Z 05007KT 01/M02 A3023 RMK A01 T00071016  RH  085%=      5-min Rain = 0
KAMH 072320Z 06007KT 01/M02 A3023 RMK A01 T00071015  RH  086%=      5-min Rain = 0
KAMH 072325Z 05007KT 01/M01 A3023 RMK A01 T00081014  RH  086%=      5-min Rain = 0
KAMH 072330Z 05009KT 01/M02 A3022 RMK A01 T00071015  RH  086%=      5-min Rain = 0
KAMH 072335Z 06008KT 01/M01 A3023 RMK A01 T00061014  RH  087%=      5-min Rain = 0
KAMH 072340Z 06009KT 01/M01 A3023 RMK A01 T00061014  RH  088%=      5-min Rain = 0
KAMH 072345Z 06008KT 01/M01 A3023 RMK A01 T00051013  RH  088%=      5-min Rain = 0
KAMH 072350Z 06008KT 01/M01 A3022 RMK A01 T00051013  RH  089%=      5-min Rain = 0
KAMH 072355Z 06009KT 00/M01 A3023 RMK A01 T00041013  RH  089%=      5-min Rain = 0
KAMH 080000Z 06009KT 00/M01 A3023 RMK A01 T00031014  RH  089%=      5-min Rain = 0
KAMH 080005Z 06009KT 00/M01 A3023 RMK A01 T00021014  RH  089%=      5-min Rain = 0
KAMH 080010Z 06008KT 00/M01 A3023 RMK A01 T00021014  RH  090%=      5-min Rain = 0
KAMH 080015Z 06008KT 00/M01 A3023 RMK A01 T00021014  RH  090%=      5-min Rain = 0
KAMH 080020Z 06010KT 00/M02 A3023 RMK A01 T00021015  RH  089%=      5-min Rain = 0
KAMH 080025Z 05008KT 00/M02 A3023 RMK A01 T00011015  RH  090%=      5-min Rain = 0
KAMH 080030Z 05009KT 00/02 A3023 RMK A01 T00000-16  RH  089%=      5-min Rain = 0
KAMH 080035Z 05009KT 00/02 A3023 RMK A01 T00000-18  RH  088%=      5-min Rain = 0
KAMH 080040Z 05010KT M00/M02 A3023 RMK A01 T10011021  RH  087%=      5-min Rain = 0
KAMH 080045Z 06010KT M00/M02 A3024 RMK A01 T10011022  RH  087%=      5-min Rain = 0
KAMH 080050Z 05008KT M00/M02 A3024 RMK A01 T10011022  RH  086%=      5-min Rain = 0
KAMH 080055Z 06008KT M00/M02 A3025 RMK A01 T10011022  RH  087%=      5-min Rain = 0
KAMH 080100Z 06007KT M00/M02 A3025 RMK A01 T10021022  RH  087%=      5-min Rain = 0
KAMH 080105Z 05007KT M00/M02 A3025 RMK A01 T10021022  RH  087%=      5-min Rain = 0
KAMH 080110Z 06008KT M00/M02 A3026 RMK A01 T10011023  RH  086%=      5-min Rain = 0
KAMH 080115Z 05007KT M00/M02 A3026 RMK A01 T10021024  RH  086%=      5-min Rain = 0
KAMH 080120Z 05007KT M00/M02 A3026 RMK A01 T10021024  RH  086%=      5-min Rain = 0
KAMH 080125Z 06008KT M00/M02 A3026 RMK A01 T10021023  RH  086%=      5-min Rain = 0
KAMH 080130Z 05007KT M00/M02 A3026 RMK A01 T10021024  RH  086%=      5-min Rain = 0
KAMH 080135Z 05007KT M00/M02 A3025 RMK A01 T10021023  RH  086%=      5-min Rain = 0
KAMH 080140Z 05007KT M00/M02 A3026 RMK A01 T10011022  RH  086%=      5-min Rain = 0
KAMH 080145Z 05007KT M00/M02 A3026 RMK A01 T10011022  RH  086%=      5-min Rain = 0
KAMH 080150Z 05008KT M00/M02 A3026 RMK A01 T10011023  RH  086%=      5-min Rain = 0
KAMH 080155Z 04006KT M00/M02 A3026 RMK A01 T10011023  RH  086%=      5-min Rain = 0
KAMH 080200Z 04007KT M00/M02 A3026 RMK A01 T10011023  RH  086%=      5-min Rain = 0
KAMH 080205Z 04007KT 00/02 A3027 RMK A01 T00-00-22  RH  086%=      5-min Rain = 0
KAMH 080210Z 05006KT 00/02 A3027 RMK A01 T00-00-22  RH  086%=      5-min Rain = 0
KAMH 080215Z 05008KT 00/02 A3027 RMK A01 T00000-22  RH  086%=      5-min Rain = 0
KAMH 080220Z 06008KT 00/02 A3028 RMK A01 T00000-23  RH  085%=      5-min Rain = 0
KAMH 080225Z 06008KT 00/02 A3028 RMK A01 T00000-23  RH  085%=      5-min Rain = 0
KAMH 080230Z 05008KT 00/02 A3027 RMK A01 T00000-23  RH  085%=      5-min Rain = 0
KAMH 080235Z 05007KT 00/02 A3028 RMK A01 T00-00-23  RH  085%=      5-min Rain = 0
KAMH 080240Z 06007KT 00/02 A3028 RMK A01 T00-00-22  RH  086%=      5-min Rain = 0
KAMH 080245Z 06005KT 00/02 A3028 RMK A01 T00000-21  RH  086%=      5-min Rain = 0
KAMH 080250Z 07007KT 00/02 A3028 RMK A01 T00000-21  RH  086%=      5-min Rain = 0
KAMH 080255Z 06009KT 00/02 A3028 RMK A01 T00000-22  RH  086%=      5-min Rain = 0
KAMH 080300Z 06009KT 00/02 A3028 RMK A01 T00-00-23  RH  085%=      5-min Rain = 0
KAMH 080305Z 05009KT 00/02 A3028 RMK A01 T00-00-22  RH  086%=      5-min Rain = 0
KAMH 080310Z 05008KT 00/02 A3027 RMK A01 T00-00-22  RH  086%=      5-min Rain = 0
KAMH 080315Z 06008KT 00/02 A3027 RMK A01 T00-00-22  RH  086%=      5-min Rain = 0
KAMH 080320Z 06008KT 00/02 A3027 RMK A01 T00-00-21  RH  086%=      5-min Rain = 0
KAMH 080325Z 06008KT 00/02 A3027 RMK A01 T00-00-22  RH  086%=      5-min Rain = 0
KAMH 080330Z 06007KT 00/02 A3027 RMK A01 T00-00-21  RH  087%=      5-min Rain = 0
KAMH 080335Z 06008KT M00/M02 A3027 RMK A01 T10011021  RH  087%=      5-min Rain = 0
KAMH 080340Z 07006KT M00/M02 A3027 RMK A01 T10011021  RH  087%=      5-min Rain = 0
KAMH 080345Z 06007KT 00/02 A3027 RMK A01 T00-00-21  RH  087%=      5-min Rain = 0
KAMH 080350Z 06005KT 00/02 A3028 RMK A01 T00-00-20  RH  087%=      5-min Rain = 0
KAMH 080355Z 07005KT 00/02 A3028 RMK A01 T00-00-20  RH  087%=      5-min Rain = 0
KAMH 080400Z 06005KT 00/02 A3028 RMK A01 T00-00-20  RH  087%=      5-min Rain = 0
KAMH 080405Z 06005KT 00/02 A3028 RMK A01 T00-00-20  RH  087%=      5-min Rain = 0
KAMH 080410Z 06005KT M00/M02 A3028 RMK A01 T10011021  RH  087%=      5-min Rain = 0
KAMH 080415Z 06005KT M00/M02 A3027 RMK A01 T10011020  RH  088%=      5-min Rain = 0
KAMH 080420Z 05006KT M00/M02 A3027 RMK A01 T10021020  RH  088%=      5-min Rain = 0
KAMH 080425Z 06007KT M00/M02 A3028 RMK A01 T10031019  RH  089%=      5-min Rain = 0
KAMH 080430Z 05008KT M00/M02 A3028 RMK A01 T10031018  RH  091%=      5-min Rain = 0
KAMH 080435Z 05008KT M00/M02 A3028 RMK A01 T10041017  RH  092%=      5-min Rain = 0
KAMH 080440Z 06007KT M01/M02 A3028 RMK A01 T10051016  RH  093%=      5-min Rain = 0
KAMH 080445Z 06006KT M01/M01 A3028 RMK A01 T10061014  RH  095%=      5-min Rain = 0
KAMH 080450Z 06006KT M01/M01 A3028 RMK A01 T10061013  RH  096%=      5-min Rain = 0
KAMH 080455Z 06006KT M01/M01 A3028 RMK A01 T10061013  RH  096%=      5-min Rain = 0
KAMH 080500Z 06007KT M01/M01 A3028 RMK A01 T10061012  RH  096%=      5-min Rain = 0
KAMH 080505Z 05007KT M01/M01 A3028 RMK A01 T10061012  RH  097%=      5-min Rain = 0
KAMH 080510Z 05007KT M01/M01 A3028 RMK A01 T10061012  RH  097%=      5-min Rain = 0
KAMH 080515Z 04007KT M01/M01 A3028 RMK A01 T10051011  RH  097%=      5-min Rain = 0
KAMH 080520Z 04007KT M01/M01 A3028 RMK A01 T10061011  RH  097%=      5-min Rain = 0
KAMH 080525Z 04007KT M01/M01 A3028 RMK A01 T10061011  RH  097%=      5-min Rain = 0
KAMH 080530Z 03008G13KT M01/M01 A3028 RMK A01 T10071012  RH  097%=      5-min Rain = 0
KAMH 080535Z 04010KT M01/M01 A3027 RMK A01 T10071013  RH  097%=      5-min Rain = 0
KAMH 080540Z 04009KT M01/M01 A3027 RMK A01 T10071014  RH  096%=      5-min Rain = 0
KAMH 080545Z 03008KT M01/M01 A3027 RMK A01 T10071013  RH  097%=      5-min Rain = 0
KAMH 080550Z 03007KT M01/M01 A3027 RMK A01 T10071013  RH  097%=      5-min Rain = 0
KAMH 080555Z 03008KT M01/M01 A3027 RMK A01 T10071013  RH  097%=      5-min Rain = 0

Page generated in 0.012 seconds.